Village of Lakewood, Illinois
Current Conditions -  °F | °C
As of 3:52 AM on Friday 28 Nov 2014 (Local Time) from KDPA Reporting Station
Overcast Overcast  
Wind Chill: 17°   Ceiling: 8000
Heat Index: 17°   Visibility: 10mi
Dew Point: 12°   Wind: 3mph
Humidity: 81%   Direction: 180°S
Pressure: 30.34"   Gusts: NA
Location:  42.2284°N, 88.3202°W
Report Text: KDPA 280952Z 18003KT 10SM OVC080 M08/M11 A3034 RMK AO2 SLP286 T10831111
Loading
Personal Weather Stations






























Interactive Weather Map New forecast layout! Learn more

10-Day Weather Forecast

Advertisements
Track Severe Weather on mobile